Terminal Aerodrome Forecast
Issued by NWS

Home | Current Version | Previous Version | Text Only | Print | Product List | Glossary On
Versions: 1 2 3 4 5 6 7 8 9 10 11 12 13 14 15 16 17 18 19 20 21 22 23 24 25 26 27 28 29 30 31 32 33 34 35 36 37 38 39 40 41 42 43 44 45 46 47 48 49 50
000
FTUS44 KHGX 251159
TAFCXO
TAF
KCXO 251159Z 2512/2612 15004KT P6SM BKN002
      TEMPO 2513/2514 5SM BR SCT005 BKN010
     FM251400 15005KT P6SM SCT015 BKN025
     FM251600 16009KT P6SM VCSH BKN025
     FM251800 16010KT 6SM TSRA BR SCT025 BKN040CB
     FM260100 15005KT P6SM BKN050
     FM260700 17004KT 6SM BR BKN012
      TEMPO 2609/2612 2SM BR OVC005=

USA.gov is the U.S. government's official web portal to all federal, state and local government web resources and services.